createdAt,value
2023-05-10T00:00:16.212Z,21.03
2023-05-10T00:01:16.027Z,21.10
2023-05-10T00:02:16.135Z,21.01
2023-05-10T00:03:16.123Z,21.04
2023-05-10T00:04:16.051Z,21.09
2023-05-10T00:05:16.027Z,21.01
2023-05-10T00:06:16.045Z,21.04
2023-05-10T00:07:16.035Z,21.07
2023-05-10T00:08:16.029Z,21.06
2023-05-10T00:09:16.039Z,21.14
2023-05-10T00:10:16.343Z,21.04
2023-05-10T00:11:16.019Z,21.10
2023-05-10T00:12:16.020Z,21.07
2023-05-10T00:13:16.082Z,21.09
2023-05-10T00:14:16.016Z,21.04
2023-05-10T00:15:16.043Z,21.10
2023-05-10T00:16:16.060Z,21.10
2023-05-10T00:17:16.007Z,21.01
2023-05-10T00:18:16.024Z,21.07
2023-05-10T00:19:16.016Z,21.09
2023-05-10T00:20:16.394Z,21.04
2023-05-10T00:21:16.012Z,21.09
2023-05-10T00:22:16.012Z,21.07
2023-05-10T00:23:16.017Z,21.09
2023-05-10T00:24:16.013Z,21.09
2023-05-10T00:25:16.030Z,21.13
2023-05-10T00:26:15.998Z,21.04
2023-05-10T00:27:16.003Z,21.03
2023-05-10T00:28:15.979Z,21.06
2023-05-10T00:29:15.979Z,21.03
2023-05-10T00:30:16.306Z,21.03
2023-05-10T00:31:15.990Z,21.04
2023-05-10T00:32:16.038Z,21.03
2023-05-10T00:33:15.988Z,21.09
2023-05-10T00:34:16.013Z,21.10
2023-05-10T00:35:15.988Z,21.13
2023-05-10T00:36:15.978Z,21.04
2023-05-10T00:37:15.995Z,21.06
2023-05-10T00:38:15.994Z,21.10
2023-05-10T00:39:15.981Z,21.01
2023-05-10T00:40:16.202Z,21.06
2023-05-10T00:41:15.998Z,21.09
2023-05-10T00:42:15.987Z,21.13
2023-05-10T00:43:15.999Z,21.14
2023-05-10T00:44:15.971Z,21.10
2023-05-10T00:45:15.972Z,21.07
2023-05-10T00:46:15.993Z,21.06
2023-05-10T00:47:15.971Z,21.06
2023-05-10T00:48:15.973Z,21.06
2023-05-10T00:49:15.977Z,21.04
2023-05-10T00:50:16.315Z,21.04
2023-05-10T00:51:15.963Z,21.10
2023-05-10T00:52:15.976Z,21.06
2023-05-10T00:53:15.968Z,21.06
2023-05-10T00:54:15.937Z,21.09
2023-05-10T00:55:15.955Z,21.04
2023-05-10T00:56:16.100Z,21.06
2023-05-10T00:57:15.956Z,21.04
2023-05-10T00:58:15.952Z,21.13
2023-05-10T00:59:15.955Z,21.03
2023-05-10T01:00:16.318Z,21.04
2023-05-10T01:01:16.024Z,21.16
2023-05-10T01:02:16.083Z,21.14
2023-05-10T01:03:16.119Z,21.04
2023-05-10T01:04:15.960Z,21.04
2023-05-10T01:05:16.126Z,21.17
2023-05-10T01:06:15.977Z,21.12
2023-05-10T01:07:15.952Z,21.16
2023-05-10T01:08:15.981Z,21.14
2023-05-10T01:09:15.924Z,21.01
2023-05-10T01:10:16.424Z,21.04
2023-05-10T01:11:15.980Z,21.04
2023-05-10T01:12:16.008Z,21.17
2023-05-10T01:13:16.018Z,21.04
2023-05-10T01:14:15.985Z,21.04
2023-05-10T01:15:15.939Z,21.13
2023-05-10T01:16:16.000Z,21.12
2023-05-10T01:17:15.976Z,21.13
2023-05-10T01:18:15.951Z,21.04
2023-05-10T01:19:15.940Z,21.17
2023-05-10T01:20:16.253Z,21.12
2023-05-10T01:21:15.991Z,21.06
2023-05-10T01:22:16.012Z,21.14
2023-05-10T01:23:16.012Z,21.10
2023-05-10T01:24:15.990Z,21.10
2023-05-10T01:25:15.994Z,21.03
2023-05-10T01:26:15.935Z,21.04
2023-05-10T01:27:15.988Z,21.14
2023-05-10T01:28:15.891Z,21.14
2023-05-10T01:29:15.955Z,21.14
2023-05-10T01:30:17.325Z,21.09
2023-05-10T01:31:15.965Z,21.13
2023-05-10T01:32:15.915Z,21.12
2023-05-10T01:33:16.033Z,21.03
2023-05-10T01:34:15.903Z,21.14
2023-05-10T01:35:15.945Z,21.07
2023-05-10T01:36:15.892Z,21.14
2023-05-10T01:37:15.878Z,20.99
2023-05-10T01:38:15.904Z,21.14
2023-05-10T01:39:15.881Z,21.01
2023-05-10T01:40:16.091Z,21.03
2023-05-10T01:41:15.875Z,21.17
2023-05-10T01:42:15.889Z,21.12
2023-05-10T01:43:15.873Z,21.04
2023-05-10T01:44:15.880Z,21.16
2023-05-10T01:45:15.878Z,21.14
2023-05-10T01:46:15.922Z,21.13
2023-05-10T01:47:15.871Z,21.04
2023-05-10T01:48:15.869Z,21.01
2023-05-10T01:49:15.860Z,21.01
2023-05-10T01:50:16.141Z,21.01
2023-05-10T01:51:15.866Z,21.09
2023-05-10T01:52:15.855Z,21.16
2023-05-10T01:53:15.864Z,21.07
2023-05-10T01:54:15.883Z,21.03
2023-05-10T01:55:15.878Z,21.09
2023-05-10T01:56:15.850Z,21.03
2023-05-10T01:57:15.856Z,20.99
2023-05-10T01:58:15.868Z,21.09
2023-05-10T01:59:15.839Z,21.03
2023-05-10T02:00:16.244Z,21.09
2023-05-10T02:01:15.911Z,21.10
2023-05-10T02:02:15.844Z,21.06
2023-05-10T02:03:15.898Z,21.03
2023-05-10T02:04:15.856Z,21.07
2023-05-10T02:05:15.845Z,21.09
2023-05-10T02:06:15.826Z,21.04
2023-05-10T02:07:15.821Z,21.07
2023-05-10T02:08:15.825Z,21.06
2023-05-10T02:09:15.822Z,21.14
2023-05-10T02:10:16.078Z,21.07
2023-05-10T02:11:15.833Z,21.03
2023-05-10T02:12:15.819Z,21.01
2023-05-10T02:13:15.852Z,21.03
2023-05-10T02:14:15.825Z,21.03
2023-05-10T02:15:15.827Z,21.04
2023-05-10T02:16:15.899Z,21.14
2023-05-10T02:17:15.819Z,21.03
2023-05-10T02:18:15.809Z,21.09
2023-05-10T02:19:15.821Z,21.06
2023-05-10T02:20:16.081Z,21.07
2023-05-10T02:21:15.821Z,21.06
2023-05-10T02:22:15.828Z,21.13
2023-05-10T02:23:15.801Z,21.03
2023-05-10T02:24:15.815Z,21.03
2023-05-10T02:25:15.806Z,21.07
2023-05-10T02:26:15.829Z,21.07
2023-05-10T02:27:15.797Z,21.07
2023-05-10T02:28:15.809Z,21.04
2023-05-10T02:29:15.805Z,21.03
2023-05-10T02:30:15.926Z,21.04
2023-05-10T02:31:15.790Z,21.07
2023-05-10T02:32:15.885Z,21.14
2023-05-10T02:33:15.788Z,21.06
2023-05-10T02:34:15.808Z,21.06
2023-05-10T02:35:15.786Z,21.06
2023-05-10T02:36:15.779Z,21.06
2023-05-10T02:37:15.787Z,21.06
2023-05-10T02:38:15.791Z,21.04
2023-05-10T02:39:15.789Z,21.06
2023-05-10T02:40:16.065Z,21.09
2023-05-10T02:41:15.781Z,21.04
2023-05-10T02:42:15.809Z,21.03
2023-05-10T02:43:15.778Z,21.04
2023-05-10T02:44:15.791Z,21.13
2023-05-10T02:45:15.775Z,21.07
2023-05-10T02:46:15.858Z,21.07
2023-05-10T02:47:15.815Z,21.04
2023-05-10T02:48:15.789Z,21.04
2023-05-10T02:49:15.760Z,21.04
2023-05-10T02:50:16.120Z,21.06
2023-05-10T02:51:15.770Z,21.01
2023-05-10T02:52:15.778Z,21.07
2023-05-10T02:53:15.750Z,21.09
2023-05-10T02:54:15.767Z,21.03
2023-05-10T02:55:15.761Z,21.04
2023-05-10T02:56:15.791Z,20.98
2023-05-10T02:57:15.750Z,21.03
2023-05-10T02:58:15.910Z,21.01
2023-05-10T02:59:15.760Z,21.10
2023-05-10T03:00:15.992Z,21.09
2023-05-10T03:01:15.756Z,21.01
2023-05-10T03:02:15.746Z,21.01
2023-05-10T03:03:15.745Z,21.07
2023-05-10T03:04:15.782Z,21.03
2023-05-10T03:05:15.770Z,21.01
2023-05-10T03:06:15.742Z,21.06
2023-05-10T03:07:15.740Z,21.06
2023-05-10T03:08:15.740Z,20.94
2023-05-10T03:09:15.743Z,21.06
2023-05-10T03:10:16.013Z,20.99
2023-05-10T03:11:15.742Z,21.06
2023-05-10T03:12:15.738Z,20.99
2023-05-10T03:13:15.731Z,21.10
2023-05-10T03:14:15.749Z,20.97
2023-05-10T03:15:15.741Z,21.03
2023-05-10T03:16:15.768Z,20.97
2023-05-10T03:17:15.717Z,21.03
2023-05-10T03:18:15.720Z,21.03
2023-05-10T03:19:15.724Z,21.04
2023-05-10T03:20:15.941Z,20.95
2023-05-10T03:21:15.723Z,21.07
2023-05-10T03:22:15.724Z,21.06
2023-05-10T03:23:15.702Z,21.04
2023-05-10T03:24:15.713Z,20.99
2023-05-10T03:25:15.709Z,21.06
2023-05-10T03:26:15.708Z,21.06
2023-05-10T03:27:15.711Z,20.99
2023-05-10T03:28:15.715Z,20.94
2023-05-10T03:29:15.719Z,21.04
2023-05-10T03:30:15.941Z,20.99
2023-05-10T03:31:15.710Z,20.99
2023-05-10T03:32:15.692Z,20.99
2023-05-10T03:33:15.707Z,20.92
2023-05-10T03:34:15.698Z,20.95
2023-05-10T03:35:15.703Z,20.99
2023-05-10T03:36:15.687Z,21.01
2023-05-10T03:37:15.694Z,20.99
2023-05-10T03:38:15.702Z,20.97
2023-05-10T03:39:15.676Z,20.98
2023-05-10T03:40:15.899Z,20.95
2023-05-10T03:41:15.692Z,21.01
2023-05-10T03:42:15.684Z,21.03
2023-05-10T03:43:15.700Z,20.99
2023-05-10T03:44:15.689Z,20.98
2023-05-10T03:45:15.681Z,20.99
2023-05-10T03:46:15.726Z,20.99
2023-05-10T03:47:15.667Z,21.03
2023-05-10T03:48:15.676Z,20.98
2023-05-10T03:49:15.652Z,20.97
2023-05-10T03:50:16.022Z,21.03
2023-05-10T03:51:15.676Z,20.97
2023-05-10T03:52:15.669Z,20.99
2023-05-10T03:53:15.661Z,20.97
2023-05-10T03:54:15.675Z,20.98
2023-05-10T03:55:15.661Z,20.94
2023-05-10T03:56:15.656Z,20.99
2023-05-10T03:57:15.667Z,20.97
2023-05-10T03:58:15.664Z,20.98
2023-05-10T03:59:15.651Z,20.97
2023-05-10T04:00:15.991Z,20.92
2023-05-10T04:01:15.649Z,20.98
2023-05-10T04:02:15.670Z,20.95
2023-05-10T04:03:15.765Z,20.97
2023-05-10T04:04:15.729Z,20.99
2023-05-10T04:05:15.659Z,20.98
2023-05-10T04:06:15.684Z,20.98
2023-05-10T04:07:15.643Z,20.95
2023-05-10T04:08:15.640Z,20.99
2023-05-10T04:09:15.748Z,20.92
2023-05-10T04:10:15.858Z,20.97
2023-05-10T04:11:15.632Z,20.98
2023-05-10T04:12:15.639Z,20.95
2023-05-10T04:13:15.638Z,20.98
2023-05-10T04:14:15.630Z,20.97
2023-05-10T04:15:15.637Z,20.94
2023-05-10T04:16:15.658Z,20.98
2023-05-10T04:17:15.667Z,20.99
2023-05-10T04:18:15.658Z,20.98
2023-05-10T04:19:15.620Z,20.98
2023-05-10T04:20:16.023Z,20.95
2023-05-10T04:21:15.626Z,20.98
2023-05-10T04:22:15.621Z,20.95
2023-05-10T04:23:15.598Z,20.94
2023-05-10T04:24:15.605Z,20.97
2023-05-10T04:25:15.653Z,20.95
2023-05-10T04:26:15.621Z,20.97
2023-05-10T04:27:15.605Z,21.01
2023-05-10T04:28:15.608Z,20.98
2023-05-10T04:29:15.592Z,20.99
2023-05-10T04:30:15.793Z,20.94
2023-05-10T04:31:15.635Z,20.97
2023-05-10T04:32:15.592Z,20.99
2023-05-10T04:33:15.611Z,20.94
2023-05-10T04:34:15.676Z,20.98
2023-05-10T04:35:15.592Z,20.95
2023-05-10T04:36:15.593Z,20.98
2023-05-10T04:37:15.598Z,20.94
2023-05-10T04:38:15.587Z,20.95
2023-05-10T04:39:15.575Z,20.94
2023-05-10T04:40:15.851Z,20.94
2023-05-10T04:41:15.576Z,20.99
2023-05-10T04:42:15.581Z,20.95
2023-05-10T04:43:15.612Z,20.97
2023-05-10T04:44:15.576Z,20.94
2023-05-10T04:45:15.587Z,20.94
2023-05-10T04:46:15.618Z,20.95
2023-05-10T04:47:15.573Z,20.98
2023-05-10T04:48:15.592Z,20.95
2023-05-10T04:49:15.555Z,20.95
2023-05-10T04:50:15.765Z,20.94
2023-05-10T04:51:15.567Z,20.94
2023-05-10T04:52:15.556Z,20.99
2023-05-10T04:53:16.051Z,21.01
2023-05-10T04:54:15.599Z,20.99
2023-05-10T04:55:15.553Z,20.94
2023-05-10T04:56:15.549Z,20.97
2023-05-10T04:57:15.606Z,20.95
2023-05-10T04:58:15.565Z,20.95
2023-05-10T04:59:15.545Z,20.95
2023-05-10T05:00:15.727Z,20.99
2023-05-10T05:01:15.580Z,21.03
2023-05-10T05:02:15.548Z,20.99
2023-05-10T05:03:15.589Z,20.97
2023-05-10T05:04:15.542Z,20.94
2023-05-10T05:05:15.533Z,21.10
2023-05-10T05:06:15.557Z,21.07
2023-05-10T05:07:15.536Z,21.10
2023-05-10T05:08:15.529Z,21.04
2023-05-10T05:09:15.517Z,21.07
2023-05-10T05:10:15.781Z,21.03
2023-05-10T05:11:15.519Z,21.06
2023-05-10T05:12:15.539Z,21.13
2023-05-10T05:13:15.556Z,21.16
2023-05-10T05:14:15.521Z,21.13
2023-05-10T05:15:15.529Z,21.16
2023-05-10T05:16:15.607Z,21.19
2023-05-10T05:17:15.512Z,21.27
2023-05-10T05:18:15.514Z,21.25
2023-05-10T05:19:15.533Z,21.28
2023-05-10T05:20:15.725Z,21.35
2023-05-10T05:21:15.504Z,21.32
2023-05-10T05:22:16.185Z,21.35
2023-05-10T05:23:15.513Z,21.40
2023-05-10T05:24:15.518Z,21.38
2023-05-10T05:25:15.518Z,21.42
2023-05-10T05:26:15.512Z,21.44
2023-05-10T05:27:15.498Z,21.44
2023-05-10T05:28:15.510Z,21.49
2023-05-10T05:29:15.504Z,21.56
2023-05-10T05:30:15.759Z,21.56
2023-05-10T05:31:15.517Z,21.59
2023-05-10T05:32:15.499Z,21.59
2023-05-10T05:33:15.506Z,21.61
2023-05-10T05:34:15.493Z,21.64
2023-05-10T05:35:15.807Z,21.62
2023-05-10T05:36:15.500Z,21.64
2023-05-10T05:37:15.502Z,21.67
2023-05-10T05:38:15.561Z,21.64
2023-05-10T05:39:15.490Z,21.72
2023-05-10T05:40:15.503Z,21.71
2023-05-10T05:41:15.492Z,21.71
2023-05-10T05:42:15.492Z,21.74
2023-05-10T05:43:15.476Z,21.79
2023-05-10T05:44:15.518Z,21.72
2023-05-10T05:45:15.785Z,21.75
2023-05-10T05:46:15.517Z,21.75
2023-05-10T05:47:15.503Z,21.83
2023-05-10T05:48:15.490Z,21.80
2023-05-10T05:49:15.470Z,21.79
2023-05-10T05:50:15.488Z,21.80
2023-05-10T05:51:15.515Z,21.86
2023-05-10T05:52:15.471Z,21.74
2023-05-10T05:53:15.501Z,21.79
2023-05-10T05:54:15.500Z,21.77
2023-05-10T05:55:15.788Z,21.82
2023-05-10T05:56:15.469Z,21.82
2023-05-10T05:57:15.476Z,21.82
2023-05-10T05:58:15.481Z,21.77
2023-05-10T05:59:15.483Z,21.75
2023-05-10T06:00:15.482Z,21.80
2023-05-10T06:01:15.479Z,21.79
2023-05-10T06:02:15.493Z,21.80
2023-05-10T06:03:15.542Z,21.72
2023-05-10T06:04:15.500Z,21.77
2023-05-10T06:05:15.663Z,21.77
2023-05-10T06:06:15.492Z,21.77
2023-05-10T06:07:15.485Z,21.72
2023-05-10T06:08:15.455Z,21.71
2023-05-10T06:09:15.458Z,21.79
2023-05-10T06:10:15.472Z,21.72
2023-05-10T06:11:15.466Z,21.75
2023-05-10T06:12:15.464Z,21.72
2023-05-10T06:13:15.558Z,21.71
2023-05-10T06:14:15.462Z,21.79
2023-05-10T06:15:15.537Z,21.74
2023-05-10T06:16:15.501Z,21.74
2023-05-10T06:17:15.452Z,21.77
2023-05-10T06:18:15.466Z,21.77
2023-05-10T06:19:15.466Z,21.75
2023-05-10T06:20:15.448Z,21.72
2023-05-10T06:21:15.463Z,21.75
2023-05-10T06:22:15.437Z,21.75
2023-05-10T06:23:15.461Z,21.71
2023-05-10T06:24:15.469Z,21.71
2023-05-10T06:25:15.617Z,21.72
2023-05-10T06:26:15.615Z,21.68
2023-05-10T06:27:15.448Z,21.74
2023-05-10T06:29:06.157Z,21.72
2023-05-10T06:30:12.768Z,21.68
2023-05-10T06:31:06.186Z,21.65
2023-05-10T06:32:06.137Z,21.64
2023-05-10T06:33:06.181Z,21.65
2023-05-10T06:34:06.149Z,21.65
2023-05-10T06:35:06.134Z,21.65
2023-05-10T06:36:06.129Z,21.64
2023-05-10T06:37:06.136Z,21.64
2023-05-10T06:38:06.131Z,21.64
2023-05-10T06:39:06.134Z,21.64
2023-05-10T06:40:06.149Z,21.64
2023-05-10T06:41:06.146Z,21.65
2023-05-10T06:42:06.146Z,21.64
2023-05-10T06:43:06.129Z,21.65
2023-05-10T06:44:06.129Z,21.59
2023-05-10T06:45:06.112Z,21.64
2023-05-10T06:46:06.143Z,21.65
2023-05-10T06:47:06.144Z,21.62
2023-05-10T06:48:06.219Z,21.64
2023-05-10T06:49:06.122Z,21.64
2023-05-10T06:50:06.116Z,21.54
2023-05-10T06:51:06.110Z,21.62
2023-05-10T06:52:06.112Z,21.65
2023-05-10T06:53:06.123Z,21.67
2023-05-10T06:54:06.116Z,21.56
2023-05-10T06:55:06.160Z,21.54
2023-05-10T06:56:06.151Z,21.56
2023-05-10T06:57:16.004Z,21.59
2023-05-10T06:58:06.130Z,21.53
2023-05-10T06:59:06.147Z,21.58
2023-05-10T07:00:06.236Z,21.58
2023-05-10T07:01:06.232Z,21.62
2023-05-10T07:02:06.167Z,21.54
2023-05-10T07:03:06.130Z,21.59
2023-05-10T07:04:06.114Z,21.53
2023-05-10T07:05:06.137Z,21.52
2023-05-10T07:06:06.169Z,21.56
2023-05-10T07:07:06.093Z,21.54
2023-05-10T07:08:06.108Z,21.54
2023-05-10T07:09:06.108Z,21.49
2023-05-10T07:10:06.099Z,21.46
2023-05-10T07:11:06.101Z,21.49
2023-05-10T07:12:07.868Z,21.49
2023-05-10T07:13:06.186Z,21.58
2023-05-10T07:14:06.106Z,21.44
2023-05-10T07:15:06.110Z,21.50
2023-05-10T07:16:06.108Z,21.54
2023-05-10T07:17:06.115Z,21.53
2023-05-10T07:18:06.205Z,21.46
2023-05-10T07:19:06.100Z,21.47
2023-05-10T07:20:06.073Z,21.49
2023-05-10T07:21:06.147Z,21.44
2023-05-10T07:22:06.090Z,21.46
2023-05-10T07:23:06.080Z,21.49
2023-05-10T07:24:06.089Z,21.49
2023-05-10T07:25:06.086Z,21.47
2023-05-10T07:26:06.070Z,21.42
2023-05-10T07:27:06.087Z,21.34
2023-05-10T07:28:06.068Z,21.46
2023-05-10T07:29:06.544Z,21.44
2023-05-10T07:30:06.237Z,21.37
2023-05-10T07:31:06.094Z,21.42
2023-05-10T07:32:06.118Z,21.42
2023-05-10T07:33:06.132Z,21.43
2023-05-10T07:34:06.076Z,21.50
2023-05-10T07:35:06.067Z,21.40
2023-05-10T07:36:06.078Z,21.42
2023-05-10T07:37:06.060Z,21.44
2023-05-10T07:38:06.062Z,21.42
2023-05-10T07:39:06.062Z,21.43
2023-05-10T07:40:06.049Z,21.38
2023-05-10T07:41:06.058Z,21.40
2023-05-10T07:42:06.062Z,21.50
2023-05-10T07:43:06.061Z,21.37
2023-05-10T07:44:06.075Z,21.46
2023-05-10T07:45:06.051Z,21.38
2023-05-10T07:46:06.127Z,21.42
2023-05-10T07:47:06.045Z,21.47
2023-05-10T07:48:06.134Z,21.47
2023-05-10T07:49:06.046Z,21.43
2023-05-10T07:50:06.040Z,21.43
2023-05-10T07:51:06.043Z,21.34
2023-05-10T07:52:06.051Z,21.40
2023-05-10T07:53:06.065Z,21.35
2023-05-10T07:54:06.046Z,21.46
2023-05-10T07:55:06.035Z,21.47
2023-05-10T07:56:06.028Z,21.35
2023-05-10T07:57:06.068Z,21.43
2023-05-10T07:58:06.085Z,21.34
2023-05-10T07:59:06.100Z,21.49
2023-05-10T08:00:06.038Z,21.38
2023-05-10T08:01:06.062Z,21.38
2023-05-10T08:02:06.091Z,21.35
2023-05-10T08:03:06.129Z,21.46
2023-05-10T08:04:06.096Z,21.43
2023-05-10T08:05:06.035Z,21.38
2023-05-10T08:06:06.032Z,21.35
2023-05-10T08:07:06.015Z,21.37
2023-05-10T08:08:06.033Z,21.37
2023-05-10T08:09:06.031Z,21.29
2023-05-10T08:10:06.012Z,21.34
2023-05-10T08:11:06.022Z,21.35
2023-05-10T08:12:06.021Z,21.38
2023-05-10T08:13:06.031Z,21.37
2023-05-10T08:14:06.025Z,21.37
2023-05-10T08:15:06.075Z,21.37
2023-05-10T08:16:06.059Z,21.34
2023-05-10T08:17:06.032Z,21.37
2023-05-10T08:18:06.027Z,21.40
2023-05-10T08:19:06.443Z,21.37
2023-05-10T08:20:06.008Z,21.32
2023-05-10T08:21:06.006Z,21.35
2023-05-10T08:22:06.012Z,21.35
2023-05-10T08:23:06.013Z,21.43
2023-05-10T08:24:06.016Z,21.32
2023-05-10T08:25:05.998Z,21.35
2023-05-10T08:26:06.038Z,21.34
2023-05-10T08:27:06.041Z,21.35
2023-05-10T08:28:06.007Z,21.34
2023-05-10T08:29:06.008Z,21.42
2023-05-10T08:30:06.008Z,21.44
2023-05-10T08:31:06.097Z,21.35
2023-05-10T08:32:05.986Z,21.38
2023-05-10T08:33:06.021Z,21.42
2023-05-10T08:34:05.998Z,21.42
2023-05-10T08:35:05.990Z,21.35
2023-05-10T08:36:05.998Z,21.40
2023-05-10T08:37:05.998Z,21.35
2023-05-10T08:38:06.012Z,21.42
2023-05-10T08:39:11.217Z,21.38
2023-05-10T08:40:06.044Z,21.35
2023-05-10T08:41:05.991Z,21.40
2023-05-10T08:42:05.989Z,21.38
2023-05-10T08:43:05.977Z,21.35
2023-05-10T08:44:05.977Z,21.34
2023-05-10T08:45:06.012Z,21.34
2023-05-10T08:46:05.981Z,21.37
2023-05-10T08:47:06.108Z,21.35
2023-05-10T08:48:06.012Z,21.38
2023-05-10T08:49:05.979Z,21.32
2023-05-10T08:50:05.984Z,21.27
2023-05-10T08:51:05.986Z,21.34
2023-05-10T08:52:05.985Z,21.38
2023-05-10T08:53:05.980Z,21.38
2023-05-10T08:54:05.971Z,21.31
2023-05-10T08:55:05.961Z,21.29
2023-05-10T08:56:05.969Z,21.34
2023-05-10T08:57:05.972Z,21.29
2023-05-10T08:58:06.001Z,21.37
2023-05-10T08:59:05.994Z,21.34
2023-05-10T09:00:05.959Z,21.32
2023-05-10T09:01:05.981Z,21.32
2023-05-10T09:02:05.967Z,21.29
2023-05-10T09:03:06.064Z,21.34
2023-05-10T09:04:06.033Z,21.32
2023-05-10T09:05:05.998Z,21.34
2023-05-10T09:06:05.967Z,21.29
2023-05-10T09:07:05.962Z,21.28
2023-05-10T09:08:05.939Z,21.28
2023-05-10T09:09:05.961Z,21.28
2023-05-10T09:10:05.966Z,21.37
2023-05-10T09:11:05.953Z,21.32
2023-05-10T09:12:05.955Z,21.32
2023-05-10T09:13:05.956Z,21.29
2023-05-10T09:14:05.938Z,21.31
2023-05-10T09:15:05.944Z,21.37
2023-05-10T09:16:17.481Z,21.34
2023-05-10T09:17:05.982Z,21.32
2023-05-10T09:18:05.944Z,21.27
2023-05-10T09:19:05.973Z,21.27
2023-05-10T09:20:05.933Z,21.32
2023-05-10T09:21:05.943Z,21.32
2023-05-10T09:22:05.959Z,21.32
2023-05-10T09:23:05.920Z,21.35
2023-05-10T09:24:05.919Z,21.29
2023-05-10T09:25:05.922Z,21.37
2023-05-10T09:26:05.927Z,21.27
2023-05-10T09:27:05.924Z,21.31
2023-05-10T09:28:05.921Z,21.28
2023-05-10T09:29:05.936Z,21.35
2023-05-10T09:30:05.930Z,21.31
2023-05-10T09:31:05.972Z,21.34
2023-05-10T09:32:05.919Z,21.34
2023-05-10T09:33:05.972Z,21.34
2023-05-10T09:34:05.918Z,21.34
2023-05-10T09:35:05.929Z,21.28
2023-05-10T09:36:05.913Z,21.29
2023-05-10T09:37:05.920Z,21.34
2023-05-10T09:38:06.032Z,21.28
2023-05-10T09:39:05.904Z,21.37
2023-05-10T09:40:05.912Z,21.29
2023-05-10T09:41:05.912Z,21.29
2023-05-10T09:42:05.925Z,21.29
2023-05-10T09:43:05.906Z,21.27
2023-05-10T09:44:05.896Z,21.32
2023-05-10T09:45:05.903Z,21.31
2023-05-10T09:46:05.907Z,21.31
2023-05-10T09:47:05.908Z,21.28
2023-05-10T09:48:06.028Z,21.32
2023-05-10T09:49:05.917Z,21.32
2023-05-10T09:50:05.910Z,21.35
2023-05-10T09:51:05.907Z,21.29
2023-05-10T09:52:05.900Z,21.32
2023-05-10T09:53:05.914Z,21.34
2023-05-10T09:54:05.939Z,21.28
2023-05-10T09:55:05.888Z,21.25
2023-05-10T09:56:05.905Z,21.34
2023-05-10T09:57:05.880Z,21.29
2023-05-10T09:58:05.890Z,21.27
2023-05-10T09:59:05.879Z,21.24
2023-05-10T10:00:05.880Z,21.22
2023-05-10T10:01:05.957Z,21.28
2023-05-10T10:02:06.015Z,21.29
2023-05-10T10:03:05.981Z,21.25
2023-05-10T10:04:05.894Z,21.31
2023-05-10T10:05:05.933Z,21.22
2023-05-10T10:06:06.781Z,21.24
2023-05-10T10:07:05.931Z,21.27
2023-05-10T10:08:05.910Z,21.32
2023-05-10T10:09:05.891Z,21.35
2023-05-10T10:10:05.878Z,21.22
2023-05-10T10:11:05.887Z,21.27
2023-05-10T10:12:05.890Z,21.27
2023-05-10T10:13:05.894Z,21.24
2023-05-10T10:14:05.889Z,21.25
2023-05-10T10:15:05.877Z,21.25
2023-05-10T10:16:05.953Z,21.29
2023-05-10T10:17:08.661Z,21.25
2023-05-10T10:18:05.968Z,21.32
2023-05-10T10:19:05.887Z,21.29
2023-05-10T10:20:05.865Z,21.32
2023-05-10T10:21:05.869Z,21.29
2023-05-10T10:22:05.863Z,21.25
2023-05-10T10:23:05.865Z,21.38
2023-05-10T10:24:05.844Z,21.25
2023-05-10T10:25:05.864Z,21.27
2023-05-10T10:26:05.859Z,21.31
2023-05-10T10:27:05.856Z,21.21
2023-05-10T10:28:05.861Z,21.34
2023-05-10T10:29:05.866Z,21.27
2023-05-10T10:30:05.848Z,21.27
2023-05-10T10:31:05.868Z,21.31
2023-05-10T10:32:05.845Z,21.31
2023-05-10T10:33:16.614Z,21.31
2023-05-10T10:34:05.844Z,21.35
2023-05-10T10:35:05.860Z,21.31
2023-05-10T10:36:05.840Z,21.32
2023-05-10T10:37:05.846Z,21.38
2023-05-10T10:38:05.838Z,21.29
2023-05-10T10:39:05.842Z,21.27
2023-05-10T10:40:05.864Z,21.32
2023-05-10T10:41:05.854Z,21.40
2023-05-10T10:42:05.861Z,21.32
2023-05-10T10:43:05.835Z,21.38
2023-05-10T10:44:05.821Z,21.37
2023-05-10T10:45:05.823Z,21.37
2023-05-10T10:46:05.823Z,21.40
2023-05-10T10:47:05.939Z,21.32
2023-05-10T10:48:05.848Z,21.37
2023-05-10T10:49:05.822Z,21.35
2023-05-10T10:50:05.857Z,21.32
2023-05-10T10:51:05.821Z,21.34
2023-05-10T10:52:05.827Z,21.35
2023-05-10T10:53:05.857Z,21.31
2023-05-10T10:54:05.828Z,21.32
2023-05-10T10:55:05.828Z,21.32
2023-05-10T10:56:05.819Z,21.34
2023-05-10T10:57:05.820Z,21.40
2023-05-10T10:58:05.841Z,21.37
2023-05-10T10:59:05.828Z,21.35
2023-05-10T11:00:05.808Z,21.34
2023-05-10T11:01:05.856Z,21.37
2023-05-10T11:02:05.852Z,21.34
2023-05-10T11:03:05.858Z,21.38
2023-05-10T11:04:05.838Z,21.34
2023-05-10T11:05:05.801Z,21.34
2023-05-10T11:06:05.811Z,21.37
2023-05-10T11:07:05.791Z,21.34
2023-05-10T11:08:05.786Z,21.44
2023-05-10T11:09:05.805Z,21.38
2023-05-10T11:10:05.799Z,21.38
2023-05-10T11:11:05.810Z,21.34
2023-05-10T11:12:05.805Z,21.38
2023-05-10T11:13:05.790Z,21.37
2023-05-10T11:14:05.824Z,21.37
2023-05-10T11:15:05.801Z,21.38
2023-05-10T11:16:05.806Z,21.40
2023-05-10T11:17:05.845Z,21.34
2023-05-10T11:18:05.851Z,21.37
2023-05-10T11:19:05.888Z,21.37
2023-05-10T11:20:05.793Z,21.40
2023-05-10T11:21:05.789Z,21.38
2023-05-10T11:22:05.852Z,21.37
2023-05-10T11:23:05.776Z,21.35
2023-05-10T11:24:05.775Z,21.40
2023-05-10T11:25:05.770Z,21.35
2023-05-10T11:26:05.769Z,21.37
2023-05-10T11:27:05.778Z,21.35
2023-05-10T11:28:05.791Z,21.38
2023-05-10T11:29:05.782Z,21.40
2023-05-10T11:30:05.799Z,21.43
2023-05-10T11:31:05.822Z,21.42
2023-05-10T11:32:05.761Z,21.38
2023-05-10T11:33:05.803Z,21.31
2023-05-10T11:34:05.781Z,21.40
2023-05-10T11:35:05.765Z,21.35
2023-05-10T11:36:05.781Z,21.38
2023-05-10T11:37:05.796Z,21.37
2023-05-10T11:38:05.773Z,21.38
2023-05-10T11:39:05.769Z,21.35
2023-05-10T11:40:05.816Z,21.35
2023-05-10T11:41:05.760Z,21.40
2023-05-10T11:42:05.758Z,21.32
2023-05-10T11:43:05.754Z,21.42
2023-05-10T11:44:05.756Z,21.35
2023-05-10T11:45:05.758Z,21.44
2023-05-10T11:46:05.848Z,21.35
2023-05-10T11:47:05.762Z,21.37
2023-05-10T11:48:05.762Z,21.32
2023-05-10T11:49:05.905Z,21.42
2023-05-10T11:50:05.760Z,21.40
2023-05-10T11:51:05.750Z,21.35
2023-05-10T11:52:05.756Z,21.37
2023-05-10T11:53:05.757Z,21.34
2023-05-10T11:54:05.746Z,21.35
2023-05-10T11:55:05.736Z,21.38
2023-05-10T11:56:05.764Z,21.37
2023-05-10T11:57:05.749Z,21.43
2023-05-10T11:58:05.744Z,21.35
2023-05-10T11:59:05.739Z,21.35
2023-05-10T12:00:05.727Z,21.38
2023-05-10T12:01:05.735Z,21.37
2023-05-10T12:02:05.764Z,21.38
2023-05-10T12:03:05.834Z,21.35
2023-05-10T12:04:06.038Z,21.40
2023-05-10T12:05:06.102Z,21.40
2023-05-10T12:06:05.747Z,21.37
2023-05-10T12:07:05.737Z,21.35
2023-05-10T12:08:05.729Z,21.34
2023-05-10T12:09:05.730Z,21.37
2023-05-10T12:10:05.756Z,21.37
2023-05-10T12:11:05.728Z,21.37
2023-05-10T12:12:05.717Z,21.34
2023-05-10T12:13:05.716Z,21.32
2023-05-10T12:14:05.717Z,21.37
2023-05-10T12:15:05.709Z,21.44
2023-05-10T12:16:05.785Z,21.35
2023-05-10T12:17:05.739Z,21.35
2023-05-10T12:18:05.794Z,21.43
2023-05-10T12:19:05.840Z,21.34
2023-05-10T12:20:05.718Z,21.35
2023-05-10T12:21:05.725Z,21.35
2023-05-10T12:22:05.753Z,21.37
2023-05-10T12:23:05.703Z,21.35
2023-05-10T12:24:05.731Z,21.35
2023-05-10T12:25:05.714Z,21.35
2023-05-10T12:26:05.722Z,21.34
2023-05-10T12:27:05.719Z,21.35
2023-05-10T12:28:05.701Z,21.34
2023-05-10T12:29:05.701Z,21.40
2023-05-10T12:30:05.724Z,21.38
2023-05-10T12:31:05.714Z,21.35
2023-05-10T12:32:05.730Z,21.35
2023-05-10T12:33:05.786Z,21.44
2023-05-10T12:34:05.719Z,21.38
2023-05-10T12:35:05.708Z,21.37
2023-05-10T12:36:05.700Z,21.35
2023-05-10T12:37:05.694Z,21.35
2023-05-10T12:38:05.703Z,21.35
2023-05-10T12:39:05.706Z,21.42
2023-05-10T12:40:05.703Z,21.38
2023-05-10T12:41:05.713Z,21.40
2023-05-10T12:42:05.699Z,21.37
2023-05-10T12:43:05.709Z,21.42
2023-05-10T12:44:05.708Z,21.35
2023-05-10T12:45:05.684Z,21.38
2023-05-10T12:46:05.725Z,21.35
2023-05-10T12:47:05.702Z,21.38
2023-05-10T12:48:05.786Z,21.35
2023-05-10T12:49:09.357Z,21.35
2023-05-10T12:50:05.705Z,21.35
2023-05-10T12:51:05.681Z,21.43
2023-05-10T12:52:05.690Z,21.35
2023-05-10T12:53:05.691Z,21.37